createdAt,value
2022-07-28T00:02:23.829Z,27.61
2022-07-28T00:04:51.869Z,27.47
2022-07-28T00:07:20.338Z,27.53
2022-07-28T00:09:48.220Z,27.47
2022-07-28T00:12:16.133Z,27.47
2022-07-28T00:14:44.312Z,27.41
2022-07-28T00:17:12.243Z,27.34
2022-07-28T00:19:40.087Z,27.27
2022-07-28T00:22:07.857Z,27.23
2022-07-28T00:24:37.830Z,27.18
2022-07-28T00:27:09.392Z,27.17
2022-07-28T00:29:49.807Z,27.12
2022-07-28T00:32:20.921Z,27.10
2022-07-28T00:34:49.010Z,27.12
2022-07-28T00:37:21.549Z,27.14
2022-07-28T00:39:49.428Z,27.14
2022-07-28T00:42:20.544Z,27.05
2022-07-28T00:44:48.736Z,27.02
2022-07-28T00:47:16.744Z,27.08
2022-07-28T00:49:45.382Z,27.00
2022-07-28T00:52:16.702Z,27.08
2022-07-28T00:54:44.625Z,27.02
2022-07-28T00:57:12.682Z,26.95
2022-07-28T00:59:40.524Z,26.85
2022-07-28T01:02:09.030Z,26.80
2022-07-28T01:04:36.916Z,26.80
2022-07-28T01:07:19.182Z,26.79
2022-07-28T01:10:12.287Z,26.74
2022-07-28T01:12:55.905Z,26.72
2022-07-28T01:15:46.818Z,26.67
2022-07-28T01:18:29.482Z,26.65
2022-07-28T01:21:03.990Z,26.74
2022-07-28T01:23:31.741Z,26.69
2022-07-28T01:25:59.489Z,26.59
2022-07-28T01:28:49.718Z,26.61
2022-07-28T01:31:21.865Z,26.60
2022-07-28T01:33:55.287Z,26.69
2022-07-28T01:36:27.804Z,26.77
2022-07-28T01:38:56.470Z,26.76
2022-07-28T01:41:28.593Z,26.63
2022-07-28T01:44:09.152Z,26.53
2022-07-28T01:46:38.741Z,26.45
2022-07-28T01:49:08.480Z,26.38
2022-07-28T01:51:37.354Z,26.37
2022-07-28T01:54:07.460Z,26.28
2022-07-28T01:56:35.532Z,26.23
2022-07-28T01:59:06.595Z,26.18
2022-07-28T02:01:37.155Z,26.13
2022-07-28T02:04:07.153Z,26.10
2022-07-28T02:06:35.679Z,26.09
2022-07-28T02:09:05.911Z,26.06
2022-07-28T02:11:39.890Z,25.92
2022-07-28T02:14:16.962Z,25.80
2022-07-28T02:16:50.146Z,25.64
2022-07-28T02:19:20.105Z,25.50
2022-07-28T02:21:50.229Z,25.40
2022-07-28T02:24:23.358Z,25.35
2022-07-28T02:26:57.675Z,25.29
2022-07-28T02:29:49.909Z,25.18
2022-07-28T02:32:28.045Z,25.18
2022-07-28T02:35:07.066Z,25.12
2022-07-28T02:37:45.379Z,25.07
2022-07-28T02:40:15.591Z,25.14
2022-07-28T02:42:47.150Z,25.11
2022-07-28T02:45:16.971Z,25.07
2022-07-28T02:47:48.988Z,25.00
2022-07-28T02:50:20.616Z,24.93
2022-07-28T02:52:49.710Z,24.99
2022-07-28T02:55:18.664Z,24.93
2022-07-28T02:57:48.754Z,24.91
2022-07-28T03:00:18.998Z,24.95
2022-07-28T03:02:47.351Z,25.04
2022-07-28T03:05:15.853Z,25.05
2022-07-28T03:07:50.470Z,24.85
2022-07-28T03:10:34.070Z,24.84
2022-07-28T03:13:05.405Z,24.84
2022-07-28T03:15:35.070Z,24.82
2022-07-28T03:18:04.998Z,24.78
2022-07-28T03:20:33.679Z,24.74
2022-07-28T03:23:02.402Z,24.73
2022-07-28T03:25:39.865Z,24.69
2022-07-28T03:28:14.084Z,24.67
2022-07-28T03:30:45.581Z,24.67
2022-07-28T03:33:13.666Z,24.62
2022-07-28T03:35:46.265Z,24.61
2022-07-28T03:38:18.959Z,24.56
2022-07-28T03:40:49.326Z,24.63
2022-07-28T03:43:21.695Z,24.60
2022-07-28T03:45:50.565Z,24.60
2022-07-28T03:48:18.376Z,24.56
2022-07-28T03:50:46.280Z,24.56
2022-07-28T03:53:21.218Z,24.49
2022-07-28T03:55:51.284Z,24.55
2022-07-28T03:58:21.047Z,24.55
2022-07-28T04:00:54.674Z,24.44
2022-07-28T04:03:42.480Z,24.34
2022-07-28T04:06:10.996Z,24.31
2022-07-28T04:08:38.841Z,24.33
2022-07-28T04:11:07.147Z,24.27
2022-07-28T04:13:37.338Z,24.26
2022-07-28T04:16:07.292Z,24.20
2022-07-28T04:18:35.772Z,24.08
2022-07-28T04:21:04.356Z,24.02
2022-07-28T04:23:32.832Z,24.06
2022-07-28T04:26:00.580Z,24.09
2022-07-28T04:28:28.540Z,24.06
2022-07-28T04:30:56.492Z,24.07
2022-07-28T04:33:25.037Z,24.11
2022-07-28T04:35:53.463Z,24.07
2022-07-28T04:38:21.291Z,24.17
2022-07-28T04:40:49.874Z,24.23
2022-07-28T04:43:18.109Z,24.31
2022-07-28T04:45:53.749Z,24.38
2022-07-28T04:48:23.692Z,24.34
2022-07-28T04:50:53.731Z,24.45
2022-07-28T04:53:23.045Z,24.78
2022-07-28T04:55:53.496Z,24.83
2022-07-28T04:58:23.329Z,24.93
2022-07-28T05:00:52.021Z,25.05
2022-07-28T05:03:20.736Z,25.15
2022-07-28T05:05:54.293Z,25.23
2022-07-28T05:08:25.647Z,25.39
2022-07-28T05:10:57.418Z,25.61
2022-07-28T05:13:29.123Z,25.74
2022-07-28T05:16:02.731Z,25.88
2022-07-28T05:18:30.683Z,26.10
2022-07-28T05:20:58.491Z,26.35
2022-07-28T05:23:26.323Z,26.45
2022-07-28T05:25:54.230Z,26.38
2022-07-28T05:28:22.098Z,26.57
2022-07-28T05:30:49.907Z,26.37
2022-07-28T05:33:17.913Z,26.60
2022-07-28T05:35:52.551Z,26.71
2022-07-28T05:38:21.007Z,26.84
2022-07-28T05:40:49.442Z,27.10
2022-07-28T05:43:17.629Z,27.18
2022-07-28T05:45:46.676Z,27.28
2022-07-28T05:48:18.715Z,27.35
2022-07-28T05:50:47.883Z,27.56
2022-07-28T05:53:16.180Z,27.22
2022-07-28T05:56:00.222Z,27.08
2022-07-28T05:58:30.741Z,27.35
2022-07-28T06:01:01.339Z,27.62
2022-07-28T06:03:32.203Z,27.55
2022-07-28T06:06:14.702Z,27.63
2022-07-28T06:08:44.990Z,27.60
2022-07-28T06:11:18.041Z,27.92
2022-07-28T06:13:52.261Z,27.83
2022-07-28T06:16:21.596Z,27.96
2022-07-28T06:18:50.428Z,27.88
2022-07-28T06:21:18.539Z,27.85
2022-07-28T06:23:46.415Z,28.00
2022-07-28T06:26:14.399Z,28.27
2022-07-28T06:28:42.249Z,28.31
2022-07-28T06:31:10.133Z,28.63
2022-07-28T06:33:38.138Z,28.65
2022-07-28T06:36:06.206Z,28.47
2022-07-28T06:38:34.094Z,28.36
2022-07-28T06:41:02.038Z,28.27
2022-07-28T06:43:29.809Z,28.47
2022-07-28T06:45:57.694Z,28.34
2022-07-28T06:48:29.115Z,28.48
2022-07-28T06:50:59.754Z,28.61
2022-07-28T06:53:31.812Z,28.54
2022-07-28T06:56:03.384Z,28.92
2022-07-28T06:58:31.816Z,28.94
2022-07-28T07:01:00.093Z,28.65
2022-07-28T07:03:28.035Z,28.75
2022-07-28T07:05:55.861Z,28.66
2022-07-28T07:08:23.647Z,28.41
2022-07-28T07:10:51.537Z,28.64
2022-07-28T07:13:19.547Z,28.74
2022-07-28T07:15:47.326Z,28.74
2022-07-28T07:18:15.241Z,28.80
2022-07-28T07:20:43.075Z,29.14
2022-07-28T07:23:10.886Z,29.45
2022-07-28T07:25:38.723Z,28.74
2022-07-28T07:28:06.602Z,28.66
2022-07-28T07:30:34.390Z,28.77
2022-07-28T07:33:02.243Z,29.04
2022-07-28T07:35:37.955Z,28.63
2022-07-28T07:38:06.180Z,28.69
2022-07-28T07:40:34.172Z,28.86
2022-07-28T07:43:02.048Z,29.13
2022-07-28T07:45:29.911Z,29.22
2022-07-28T07:47:57.849Z,29.46
2022-07-28T07:50:25.621Z,29.44
2022-07-28T07:52:53.489Z,29.11
2022-07-28T07:55:21.410Z,29.50
2022-07-28T07:57:49.310Z,29.49
2022-07-28T08:00:28.845Z,29.62
2022-07-28T08:02:58.785Z,29.29
2022-07-28T08:05:35.777Z,29.66
2022-07-28T08:08:05.517Z,29.81
2022-07-28T08:10:37.636Z,29.93
2022-07-28T08:13:07.583Z,29.89
2022-07-28T08:15:35.541Z,29.97
2022-07-28T08:18:04.320Z,30.25
2022-07-28T08:20:32.109Z,30.16
2022-07-28T08:23:00.010Z,30.27
2022-07-28T08:25:28.711Z,30.45
2022-07-28T08:27:56.642Z,29.92
2022-07-28T08:30:28.842Z,29.98
2022-07-28T08:33:00.646Z,30.27
2022-07-28T08:35:34.288Z,30.10
2022-07-28T08:38:07.131Z,30.19
2022-07-28T08:40:48.719Z,30.08
2022-07-28T08:43:41.972Z,30.10
2022-07-28T08:46:10.053Z,30.16
2022-07-28T08:48:40.644Z,29.96
2022-07-28T08:51:12.024Z,30.20
2022-07-28T08:53:41.433Z,30.51
2022-07-28T08:56:14.029Z,30.47
2022-07-28T08:58:43.527Z,30.49
2022-07-28T09:01:11.707Z,30.78
2022-07-28T09:03:39.804Z,30.50
2022-07-28T09:06:11.495Z,30.70
2022-07-28T09:08:39.672Z,30.47
2022-07-28T09:11:16.548Z,30.29
2022-07-28T09:13:45.196Z,30.76
2022-07-28T09:16:15.313Z,30.69
2022-07-28T09:18:43.302Z,30.84
2022-07-28T09:21:15.509Z,30.91
2022-07-28T09:23:54.353Z,30.70
2022-07-28T09:26:23.334Z,30.43
2022-07-28T09:28:58.890Z,30.86
2022-07-28T09:31:29.422Z,30.88
2022-07-28T09:34:05.779Z,30.97
2022-07-28T09:36:42.668Z,30.95
2022-07-28T09:39:10.919Z,31.22
2022-07-28T09:41:50.419Z,30.92
2022-07-28T09:44:23.081Z,31.09
2022-07-28T09:46:51.437Z,31.51
2022-07-28T09:49:24.018Z,31.60
2022-07-28T09:52:02.683Z,31.44
2022-07-28T09:54:30.571Z,31.42
2022-07-28T09:56:59.653Z,31.23
2022-07-28T09:59:50.645Z,31.61
2022-07-28T10:02:26.693Z,31.47
2022-07-28T10:04:55.479Z,31.31
2022-07-28T10:07:24.296Z,31.49
2022-07-28T10:10:02.758Z,31.66
2022-07-28T10:12:33.151Z,31.53
2022-07-28T10:15:32.524Z,31.67
2022-07-28T10:18:01.101Z,32.00
2022-07-28T10:20:32.787Z,32.05
2022-07-28T10:23:06.729Z,32.03
2022-07-28T10:25:40.554Z,31.96
2022-07-28T10:28:11.703Z,32.18
2022-07-28T10:30:41.210Z,32.31
2022-07-28T10:33:15.856Z,32.22
2022-07-28T10:35:54.343Z,32.33
2022-07-28T10:38:28.254Z,32.33
2022-07-28T10:40:58.702Z,32.34
2022-07-28T10:43:28.258Z,32.42
2022-07-28T10:46:08.145Z,32.75
2022-07-28T10:48:40.543Z,32.60
2022-07-28T10:51:12.233Z,32.64
2022-07-28T10:53:55.483Z,32.85
2022-07-28T10:56:44.533Z,32.51
2022-07-28T10:59:39.853Z,32.56
2022-07-28T11:02:08.870Z,32.79
2022-07-28T11:04:48.239Z,32.91
2022-07-28T11:07:18.368Z,32.42
2022-07-28T11:09:47.829Z,32.80
2022-07-28T11:12:16.752Z,32.89
2022-07-28T11:14:45.162Z,32.72
2022-07-28T11:17:16.205Z,32.91
2022-07-28T11:19:55.826Z,33.12
2022-07-28T11:22:35.807Z,33.28
2022-07-28T11:25:20.418Z,33.36
2022-07-28T11:27:52.694Z,33.39
2022-07-28T11:30:32.699Z,33.31
2022-07-28T11:33:03.052Z,33.38
2022-07-28T11:35:54.790Z,33.58
2022-07-28T11:38:23.735Z,33.75
2022-07-28T11:40:54.274Z,33.88
2022-07-28T11:43:24.229Z,33.74
2022-07-28T11:46:09.869Z,33.88
2022-07-28T11:48:40.566Z,33.66
2022-07-28T11:51:12.028Z,33.56
2022-07-28T11:53:49.285Z,33.94
2022-07-28T11:56:26.542Z,33.89
2022-07-28T11:58:58.415Z,33.69
2022-07-28T12:01:32.114Z,33.98
2022-07-28T12:04:01.934Z,34.00
2022-07-28T12:06:40.602Z,33.97
2022-07-28T12:09:11.329Z,34.30
2022-07-28T12:11:42.812Z,34.13
2022-07-28T12:14:15.969Z,34.01
2022-07-28T12:16:45.114Z,33.99
2022-07-28T12:19:16.067Z,34.23
2022-07-28T12:21:50.829Z,34.03
2022-07-28T12:24:44.982Z,34.04
2022-07-28T12:27:16.581Z,34.38
2022-07-28T12:29:56.430Z,34.08
2022-07-28T12:32:35.527Z,34.11
2022-07-28T12:35:04.107Z,34.20
2022-07-28T12:37:35.106Z,34.10
2022-07-28T12:40:03.414Z,34.15
2022-07-28T12:42:32.512Z,34.32
2022-07-28T12:45:04.908Z,34.27
2022-07-28T12:47:32.955Z,33.84
2022-07-28T12:50:14.215Z,34.25
2022-07-28T12:52:44.349Z,33.97
2022-07-28T12:55:30.885Z,34.20
2022-07-28T12:57:59.387Z,33.83
2022-07-28T13:00:31.233Z,33.55
2022-07-28T13:03:01.295Z,33.72
2022-07-28T13:05:56.301Z,34.17
2022-07-28T13:08:29.514Z,34.18
2022-07-28T13:11:00.332Z,34.64
2022-07-28T13:13:28.711Z,34.47
2022-07-28T13:16:16.325Z,33.94
2022-07-28T13:18:53.625Z,34.34
2022-07-28T13:21:56.491Z,34.63
2022-07-28T13:24:28.283Z,34.72
2022-07-28T13:26:57.472Z,35.16
2022-07-28T13:29:26.020Z,34.81
2022-07-28T13:31:54.989Z,34.88
2022-07-28T16:56:38.755Z,31.60
2022-07-28T16:59:09.210Z,31.90
2022-07-28T17:01:42.134Z,31.98
2022-07-28T17:04:14.559Z,31.97
2022-07-28T17:06:43.289Z,31.96
2022-07-28T17:09:11.788Z,32.09
2022-07-28T17:11:41.892Z,32.05
2022-07-28T17:14:11.909Z,32.11
2022-07-28T17:16:40.362Z,32.04
2022-07-28T17:19:11.043Z,31.84
2022-07-28T17:21:40.716Z,31.89
2022-07-28T17:24:11.742Z,31.95
2022-07-28T17:27:35.294Z,31.91
2022-07-28T17:29:31.389Z,32.00
2022-07-28T17:31:59.269Z,31.97
2022-07-28T17:34:27.250Z,31.95
2022-07-28T17:36:55.667Z,31.84
2022-07-28T17:39:23.510Z,31.85
2022-07-28T17:41:51.633Z,31.84
2022-07-28T17:44:19.755Z,31.88
2022-07-28T17:46:49.296Z,31.78
2022-07-28T17:49:17.974Z,31.53
2022-07-28T17:51:45.869Z,31.66
2022-07-28T17:54:15.939Z,31.69
2022-07-28T17:56:44.268Z,31.66
2022-07-28T17:59:13.125Z,31.64
2022-07-28T18:01:45.388Z,31.55
2022-07-28T18:04:13.982Z,31.54
2022-07-28T18:06:46.026Z,31.66
2022-07-28T18:09:14.502Z,31.50
2022-07-28T18:11:57.681Z,31.44
2022-07-28T18:14:28.243Z,31.36
2022-07-28T18:16:57.902Z,31.44
2022-07-28T18:19:29.179Z,31.25
2022-07-28T18:21:57.354Z,31.28
2022-07-28T18:24:26.511Z,31.06
2022-07-28T18:26:54.596Z,31.18
2022-07-28T18:29:22.806Z,31.07
2022-07-28T18:31:51.879Z,31.21
2022-07-28T18:34:24.763Z,31.17
2022-07-28T18:36:56.140Z,31.14
2022-07-28T18:39:24.118Z,31.20
2022-07-28T18:41:56.235Z,31.11
2022-07-28T18:44:24.439Z,31.01
2022-07-28T18:46:52.691Z,30.95
2022-07-28T18:49:21.779Z,30.84
2022-07-28T18:51:49.984Z,30.64
2022-07-28T18:54:27.183Z,30.64
2022-07-28T18:56:56.843Z,30.47
2022-07-28T18:59:25.235Z,30.74
2022-07-28T19:01:53.252Z,30.77
2022-07-28T19:04:21.346Z,30.74
2022-07-28T19:06:50.323Z,30.79
2022-07-28T19:09:18.389Z,30.79
2022-07-28T19:11:46.868Z,30.83
2022-07-28T19:14:16.329Z,30.84
2022-07-28T19:16:44.676Z,30.61
2022-07-28T19:19:14.574Z,30.64
2022-07-28T19:21:43.428Z,30.58
2022-07-28T19:24:13.696Z,30.57
2022-07-28T19:26:43.887Z,30.50
2022-07-28T19:29:12.610Z,30.54
2022-07-28T19:31:41.641Z,30.66
2022-07-28T19:34:09.911Z,30.75
2022-07-28T19:36:40.404Z,30.69
2022-07-28T19:39:08.430Z,30.60
2022-07-28T19:41:36.354Z,30.44
2022-07-28T19:44:04.440Z,30.46
2022-07-28T19:46:32.570Z,30.50
2022-07-28T19:49:00.618Z,30.53
2022-07-28T19:51:28.618Z,30.61
2022-07-28T19:53:57.820Z,30.52
2022-07-28T19:56:31.426Z,30.55
2022-07-28T19:58:59.997Z,30.57
2022-07-28T20:01:28.054Z,30.43
2022-07-28T20:04:01.793Z,30.48
2022-07-28T20:06:33.388Z,30.38
2022-07-28T20:09:02.494Z,30.52
2022-07-28T20:11:31.516Z,30.48
2022-07-28T20:14:00.159Z,30.49
2022-07-28T20:16:28.387Z,30.28
2022-07-28T20:18:57.279Z,30.41
2022-07-28T20:21:26.590Z,30.04
2022-07-28T20:23:57.371Z,30.17
2022-07-28T20:26:26.896Z,30.15
2022-07-28T20:28:56.728Z,29.99
2022-07-28T20:31:28.771Z,29.87
2022-07-28T20:33:57.399Z,29.83
2022-07-28T20:36:29.652Z,30.02
2022-07-28T20:38:59.137Z,29.81
2022-07-28T20:41:27.877Z,29.76
2022-07-28T20:44:26.198Z,29.80
2022-07-28T20:46:51.813Z,29.76
2022-07-28T20:49:20.603Z,29.72
2022-07-28T20:51:50.888Z,29.66
2022-07-28T20:54:20.155Z,29.37
2022-07-28T20:56:49.102Z,29.34
2022-07-28T20:59:16.956Z,29.18
2022-07-28T21:01:44.881Z,29.13
2022-07-28T21:04:13.225Z,29.03
2022-07-28T21:06:50.133Z,29.04
2022-07-28T21:09:19.764Z,28.85
2022-07-28T21:11:47.920Z,28.95
2022-07-28T21:14:16.401Z,28.88
2022-07-28T21:16:44.911Z,28.77
2022-07-28T21:19:12.839Z,28.75
2022-07-28T21:21:40.675Z,28.79
2022-07-28T21:24:08.854Z,28.79
2022-07-28T21:26:36.750Z,28.72
2022-07-28T21:32:04.645Z,28.67
2022-07-28T21:34:34.325Z,28.55
2022-07-28T21:37:06.813Z,28.44
2022-07-28T21:39:34.890Z,28.39
2022-07-28T21:42:06.942Z,28.42
2022-07-28T21:44:36.668Z,28.47
2022-07-28T21:47:04.710Z,28.46
2022-07-28T21:49:32.729Z,28.48
2022-07-28T21:52:00.594Z,28.43
2022-07-28T21:54:28.492Z,28.46
2022-07-28T21:56:56.337Z,28.49
2022-07-28T21:59:24.141Z,28.50
2022-07-28T22:01:52.009Z,28.51
2022-07-28T22:04:20.279Z,28.49
2022-07-28T22:06:48.666Z,28.51
2022-07-28T22:09:16.455Z,28.54
2022-07-28T22:11:44.332Z,28.52
2022-07-28T22:14:12.469Z,28.00
2022-07-28T22:16:40.446Z,27.46
2022-07-28T22:19:12.506Z,27.02
2022-07-28T22:21:40.437Z,26.40
2022-07-28T22:24:08.735Z,26.01
2022-07-28T22:26:36.627Z,25.65
2022-07-28T22:29:04.424Z,24.96
2022-07-28T22:31:32.304Z,24.57
2022-07-28T22:34:00.115Z,24.27
2022-07-28T22:36:28.051Z,24.26
2022-07-28T22:38:55.878Z,24.00
2022-07-28T22:41:23.613Z,23.86
2022-07-28T22:43:51.538Z,23.68
2022-07-28T22:46:19.363Z,23.45
2022-07-28T22:48:47.290Z,23.43
2022-07-28T22:51:15.670Z,23.26
2022-07-28T22:53:43.499Z,23.14
2022-07-28T22:56:23.468Z,23.41
2022-07-28T22:58:51.430Z,23.50
2022-07-28T23:01:19.477Z,23.40
2022-07-28T23:03:47.505Z,23.46
2022-07-28T23:06:15.648Z,23.22
2022-07-28T23:08:43.944Z,23.20
2022-07-28T23:11:11.859Z,23.38
2022-07-28T23:13:39.797Z,23.32
2022-07-28T23:16:12.303Z,23.21
2022-07-28T23:18:44.497Z,23.23
2022-07-28T23:21:12.767Z,23.29
2022-07-28T23:23:40.795Z,23.31
2022-07-28T23:26:08.718Z,23.31
2022-07-28T23:28:36.684Z,23.21
2022-07-28T23:31:05.529Z,23.25
2022-07-28T23:33:56.275Z,23.20
2022-07-28T23:36:26.838Z,23.14
2022-07-28T23:38:57.025Z,23.18
2022-07-28T23:41:26.085Z,23.12
2022-07-28T23:43:54.142Z,23.26
2022-07-28T23:46:22.509Z,23.19
2022-07-28T23:48:50.983Z,23.28
2022-07-28T23:51:19.255Z,23.42
2022-07-28T23:53:47.206Z,23.50
2022-07-28T23:56:15.921Z,23.71
2022-07-28T23:58:43.910Z,23.95
